createdAt,value
2022-07-30T00:05:17.566Z,56
2022-07-30T00:10:57.709Z,52
2022-07-30T00:16:38.560Z,54
2022-07-30T00:22:19.190Z,56
2022-07-30T00:27:59.496Z,56
2022-07-30T00:33:39.398Z,56
2022-07-30T00:39:19.668Z,58
2022-07-30T00:44:59.599Z,52
2022-07-30T00:50:39.617Z,44
2022-07-30T00:56:19.647Z,60
2022-07-30T01:02:00.229Z,54
2022-07-30T01:13:21.015Z,56
2022-07-30T01:19:01.101Z,54
2022-07-30T01:24:41.204Z,46
2022-07-30T01:30:21.356Z,52
2022-07-30T01:36:01.570Z,58
2022-07-30T01:41:42.094Z,44
2022-07-30T01:47:22.080Z,52
2022-07-30T01:53:02.094Z,46
2022-07-30T01:58:42.265Z,46
2022-07-30T02:04:22.596Z,46
2022-07-30T02:10:02.873Z,56
2022-07-30T02:15:43.234Z,56
2022-07-30T02:21:37.329Z,46
2022-07-30T02:27:17.646Z,52
2022-07-30T02:32:57.818Z,56
2022-07-30T02:38:38.299Z,50
2022-07-30T02:44:18.548Z,44
2022-07-30T02:49:58.673Z,42
2022-07-30T03:01:20.981Z,54
2022-07-30T03:07:09.944Z,54
2022-07-30T03:12:51.838Z,52
2022-07-30T03:18:32.524Z,48
2022-07-30T03:24:12.919Z,56
2022-07-30T03:29:53.179Z,52
2022-07-30T03:35:33.907Z,48
2022-07-30T03:41:14.301Z,50
2022-07-30T03:46:55.398Z,56
2022-07-30T03:52:41.631Z,52
2022-07-30T03:58:21.972Z,56
2022-07-30T04:04:02.636Z,62
2022-07-30T04:09:43.245Z,52
2022-07-30T04:16:42.788Z,52
2022-07-30T04:22:25.769Z,48
2022-07-30T04:28:05.793Z,54
2022-07-30T04:39:26.051Z,56
2022-07-30T04:45:06.311Z,52
2022-07-30T04:50:46.802Z,54
2022-07-30T04:56:27.119Z,58
2022-07-30T05:02:08.058Z,46
2022-07-30T05:07:48.526Z,48
2022-07-30T05:13:40.809Z,48
2022-07-30T05:19:27.272Z,46
2022-07-30T05:25:16.782Z,44
2022-07-30T05:30:59.335Z,48
2022-07-30T05:36:41.422Z,54
2022-07-30T05:42:21.522Z,44
2022-07-30T05:48:01.932Z,56
2022-07-30T05:53:42.071Z,46
2022-07-30T05:59:22.092Z,54
2022-07-30T06:05:02.731Z,56
2022-07-30T06:10:43.949Z,46
2022-07-30T06:22:07.681Z,44
2022-07-30T06:27:49.163Z,56
2022-07-30T06:33:29.504Z,46
2022-07-30T06:39:09.972Z,56
2022-07-30T06:44:50.271Z,54
2022-07-30T06:50:30.513Z,58
2022-07-30T06:56:10.740Z,58
2022-07-30T07:01:51.386Z,52
2022-07-30T07:07:59.941Z,54
2022-07-30T07:13:40.948Z,44
2022-07-30T07:20:03.367Z,38
2022-07-30T07:25:46.173Z,32
2022-07-30T07:32:08.777Z,60
2022-07-30T07:37:49.530Z,36
2022-07-30T07:49:11.714Z,14
2022-07-30T07:54:52.399Z,46
2022-07-30T08:00:34.340Z,14
2022-07-30T08:06:16.117Z,16
2022-07-30T08:11:56.476Z,50
2022-07-30T08:17:35.710Z,10
2022-07-30T08:23:20.175Z,0
2022-07-30T08:29:01.929Z,6
2022-07-30T08:34:42.456Z,8
2022-07-30T08:40:22.178Z,56
2022-07-30T08:46:02.472Z,4
2022-07-30T08:51:43.801Z,24
2022-07-30T08:57:23.779Z,10
2022-07-30T09:03:04.192Z,12
2022-07-30T09:08:44.234Z,48
2022-07-30T09:14:33.649Z,4
2022-07-30T09:20:16.535Z,4
2022-07-30T09:25:57.290Z,2
2022-07-30T09:31:54.753Z,8
2022-07-30T09:37:34.992Z,4
2022-07-30T09:43:15.945Z,6
2022-07-30T09:49:01.459Z,2
2022-07-30T09:55:02.260Z,4
2022-07-30T10:06:25.892Z,0
2022-07-30T10:12:24.455Z,2
2022-07-30T10:18:19.866Z,2
2022-07-30T10:24:11.889Z,0
2022-07-30T10:30:04.385Z,2
2022-07-30T10:35:49.847Z,2
2022-07-30T10:41:54.838Z,0
2022-07-30T10:47:53.076Z,4
2022-07-30T10:53:52.954Z,6
2022-07-30T10:59:45.580Z,0
2022-07-30T11:05:48.968Z,4
2022-07-30T11:12:18.245Z,8
2022-07-30T11:18:01.378Z,10
2022-07-30T11:23:57.166Z,0
2022-07-30T11:29:55.606Z,4
2022-07-30T11:35:39.658Z,4
2022-07-30T11:41:28.648Z,0
2022-07-30T11:47:11.971Z,6
2022-07-30T11:53:00.320Z,10
2022-07-30T11:58:41.160Z,2
2022-07-30T12:04:21.503Z,6
2022-07-30T12:15:12.285Z,7
2022-07-30T12:21:02.771Z,4
2022-07-30T12:26:43.288Z,8
2022-07-30T12:32:23.768Z,4
2022-07-30T12:38:04.357Z,2
2022-07-30T12:43:44.707Z,8
2022-07-30T12:49:53.769Z,14
2022-07-30T12:55:38.700Z,0
2022-07-30T13:01:23.063Z,22
2022-07-30T13:07:08.711Z,14
2022-07-30T13:13:07.194Z,8
2022-07-30T13:18:54.364Z,6
2022-07-30T13:24:46.568Z,0
2022-07-30T13:30:27.619Z,0
2022-07-30T13:36:22.648Z,0
2022-07-30T13:47:56.019Z,4
2022-07-30T13:53:42.081Z,0
2022-07-30T13:59:31.015Z,0
2022-07-30T14:05:20.532Z,2
2022-07-30T14:11:03.425Z,0
2022-07-30T14:16:57.497Z,20
2022-07-30T14:22:37.480Z,56
2022-07-30T14:28:38.930Z,64
2022-07-30T14:35:04.059Z,60
2022-07-30T14:41:00.657Z,62
2022-07-30T14:53:23.095Z,4
2022-07-30T14:59:03.467Z,2
2022-07-30T15:04:43.904Z,2
2022-07-30T15:10:25.631Z,8
2022-07-30T15:16:12.299Z,10
2022-07-30T15:27:48.275Z,2
2022-07-30T15:33:28.458Z,2
2022-07-30T15:39:12.304Z,4
2022-07-30T15:45:23.292Z,10
2022-07-30T15:51:09.481Z,8
2022-07-30T15:57:01.967Z,54
2022-07-30T16:02:42.353Z,56
2022-07-30T16:08:22.004Z,60
2022-07-30T16:14:01.718Z,56
2022-07-30T16:19:45.620Z,54
2022-07-30T16:25:26.090Z,54
2022-07-30T16:31:06.449Z,58
2022-07-30T16:36:49.846Z,56
2022-07-30T16:42:29.928Z,50
2022-07-30T16:48:10.638Z,56
2022-07-30T16:53:50.825Z,60
2022-07-30T16:59:30.933Z,64
2022-07-30T17:05:14.297Z,54
2022-07-30T17:16:38.654Z,54
2022-07-30T17:22:19.913Z,64
2022-07-30T17:28:00.410Z,60
2022-07-30T17:33:42.289Z,56
2022-07-30T17:40:32.404Z,70
2022-07-30T17:46:16.443Z,64
2022-07-30T17:51:56.516Z,56
2022-07-30T17:57:40.036Z,60
2022-07-30T18:03:20.591Z,56
2022-07-30T18:09:05.006Z,64
2022-07-30T18:15:00.285Z,62
2022-07-30T18:20:49.944Z,58
2022-07-30T18:26:49.475Z,52
2022-07-30T18:32:49.111Z,54
2022-07-30T18:38:42.479Z,60
2022-07-30T18:44:28.427Z,52
2022-07-30T18:50:29.857Z,54
2022-07-30T18:56:18.453Z,50
2022-07-30T19:02:18.499Z,54
2022-07-30T19:08:14.244Z,52
2022-07-30T19:14:16.848Z,66
2022-07-30T19:20:06.324Z,54
2022-07-30T19:25:49.320Z,56
2022-07-30T19:31:37.922Z,44
2022-07-30T20:15:46.572Z,52
2022-07-30T20:21:58.212Z,48
2022-07-30T20:27:39.389Z,60
2022-07-30T20:33:57.373Z,56
2022-07-30T20:39:48.586Z,52
2022-07-30T20:45:43.476Z,56
2022-07-30T20:51:38.843Z,48
2022-07-30T20:58:17.767Z,58
2022-07-30T21:04:26.936Z,46
2022-07-30T21:10:17.703Z,46
2022-07-30T21:16:20.208Z,58
2022-07-30T21:22:02.735Z,56
2022-07-30T21:27:44.065Z,46
2022-07-30T21:33:38.317Z,52
2022-07-30T21:39:51.486Z,50
2022-07-30T21:45:55.800Z,56
2022-07-30T21:51:44.871Z,50
2022-07-30T21:57:53.611Z,52
2022-07-30T23:12:58.107Z,56
2022-07-30T23:18:40.144Z,50
2022-07-30T23:24:19.925Z,56
2022-07-30T23:30:03.020Z,54
2022-07-30T23:35:43.032Z,60
2022-07-30T23:41:31.096Z,48
2022-07-30T23:47:11.384Z,56
2022-07-30T23:52:51.521Z,52
2022-07-30T23:58:31.765Z,48
